createdAt,value
2023-03-21T00:00:55.328Z,101056.22
2023-03-21T00:03:23.628Z,101051.28
2023-03-21T00:05:53.524Z,101052.81
2023-03-21T00:08:22.244Z,101047.66
2023-03-21T00:10:56.744Z,101045.47
2023-03-21T00:13:26.372Z,101043.31
2023-03-21T00:16:05.815Z,101048.13
2023-03-21T00:18:41.862Z,101049.94
2023-03-21T00:24:01.939Z,101045.34
2023-03-21T00:26:31.564Z,101032.91
2023-03-21T00:28:59.384Z,101039.31
2023-03-21T00:31:28.189Z,101036.44
2023-03-21T00:33:56.864Z,101038.22
2023-03-21T00:36:26.052Z,101032.41
2023-03-21T00:38:54.520Z,101029.28
2023-03-21T00:41:41.005Z,101027.09
2023-03-21T00:44:13.373Z,101013.13
2023-03-21T00:46:51.624Z,101020.00
2023-03-21T00:49:25.004Z,101015.91
2023-03-21T00:51:55.348Z,101018.91
2023-03-21T00:54:25.905Z,101008.75
2023-03-21T00:56:55.448Z,101006.00
2023-03-21T00:59:24.363Z,101008.66
2023-03-21T01:01:53.514Z,101007.66
2023-03-21T01:04:26.338Z,101000.81
2023-03-21T01:06:54.948Z,101003.47
2023-03-21T01:09:24.427Z,100996.22
2023-03-21T01:11:53.959Z,100995.13
2023-03-21T01:14:28.013Z,100993.91
2023-03-21T01:16:55.982Z,100991.50
2023-03-21T01:19:40.636Z,100992.47
2023-03-21T01:22:12.503Z,100983.75
2023-03-21T01:24:46.809Z,100991.88
2023-03-21T01:27:20.749Z,100988.25
2023-03-21T01:29:51.008Z,100990.91
2023-03-21T01:32:20.707Z,100989.91
2023-03-21T01:34:48.371Z,100992.47
2023-03-21T01:37:18.601Z,100995.13
2023-03-21T01:39:50.145Z,100987.03
2023-03-21T01:42:18.886Z,100979.91
2023-03-21T01:44:58.198Z,100981.72
2023-03-21T01:47:34.706Z,100977.25
2023-03-21T01:50:23.437Z,100974.38
2023-03-21T01:53:04.903Z,100972.03
2023-03-21T01:55:38.128Z,100974.22
2023-03-21T01:58:14.081Z,100970.00
2023-03-21T02:01:22.759Z,100966.50
2023-03-21T02:03:53.876Z,100968.06
2023-03-21T02:06:51.903Z,100954.78
2023-03-21T02:09:36.317Z,100958.28
2023-03-21T02:12:10.298Z,100956.72
2023-03-21T02:15:05.594Z,100954.66
2023-03-21T02:17:51.863Z,100948.63
2023-03-21T02:20:55.846Z,100948.97
2023-03-21T02:23:59.745Z,100941.16
2023-03-21T02:27:03.625Z,100941.97
2023-03-21T02:30:06.114Z,100932.31
2023-03-21T02:32:52.888Z,100926.41
2023-03-21T02:35:37.120Z,100933.28
2023-03-21T02:38:20.163Z,100926.66
2023-03-21T02:41:07.673Z,100924.84
2023-03-21T02:43:45.843Z,100929.91
2023-03-21T02:46:19.703Z,100925.31
2023-03-21T02:48:55.419Z,100926.28
2023-03-21T02:51:25.335Z,100929.66
2023-03-21T02:54:24.878Z,100925.22
2023-03-21T02:56:51.235Z,100924.09
2023-03-21T02:59:20.976Z,100929.28
2023-03-21T03:01:51.926Z,100928.56
2023-03-21T03:04:21.085Z,100926.03
2023-03-21T03:07:08.908Z,100921.56
2023-03-21T03:09:53.962Z,100925.78
2023-03-21T03:12:33.628Z,100921.56
2023-03-21T03:15:11.519Z,100916.13
2023-03-21T03:17:49.906Z,100914.31
2023-03-21T03:20:53.629Z,100916.25
2023-03-21T03:23:28.991Z,100920.72
2023-03-21T03:26:05.567Z,100911.78
2023-03-21T03:28:38.249Z,100921.31
2023-03-21T03:31:15.216Z,100918.19
2023-03-21T03:33:53.062Z,100919.75
2023-03-21T03:36:32.017Z,100918.19
2023-03-21T03:39:07.897Z,100915.28
2023-03-21T03:42:05.944Z,100908.66
2023-03-21T03:44:37.669Z,100913.00
2023-03-21T03:47:15.180Z,100912.16
2023-03-21T03:49:52.688Z,100905.63
2023-03-21T03:52:24.978Z,100903.97
2023-03-21T03:54:59.990Z,100905.88
2023-03-21T03:57:33.330Z,100900.31
2023-03-21T04:00:00.986Z,100898.63
2023-03-21T04:02:47.012Z,100903.34
2023-03-21T04:05:21.021Z,100903.47
2023-03-21T04:08:19.892Z,100906.13
2023-03-21T04:13:54.699Z,100902.88
2023-03-21T04:16:24.225Z,100893.22
2023-03-21T04:18:52.998Z,100894.22
2023-03-21T04:21:21.589Z,100896.03
2023-03-21T04:23:49.181Z,100891.66
2023-03-21T04:26:17.407Z,100891.56
2023-03-21T04:29:03.994Z,100890.56
2023-03-21T04:32:18.878Z,100886.25
2023-03-21T04:34:57.881Z,100884.56
2023-03-21T04:37:25.918Z,100888.06
2023-03-21T04:39:55.981Z,100887.06
2023-03-21T04:43:14.900Z,100879.25
2023-03-21T04:45:46.899Z,100876.59
2023-03-21T04:48:17.797Z,100885.13
2023-03-21T04:50:45.427Z,100872.13
2023-03-21T04:53:13.983Z,100869.47
2023-03-21T04:55:41.695Z,100868.63
2023-03-21T04:58:09.478Z,100868.94
2023-03-21T05:00:38.372Z,100866.41
2023-03-21T05:03:09.164Z,100868.63
2023-03-21T05:05:39.784Z,100874.03
2023-03-21T05:08:08.321Z,100860.06
2023-03-21T05:10:35.940Z,100862.72
2023-03-21T05:13:03.720Z,100856.63
2023-03-21T05:15:33.087Z,100857.13
2023-03-21T05:18:11.475Z,100857.63
2023-03-21T05:20:55.162Z,100860.19
2023-03-21T05:23:24.484Z,100863.81
2023-03-21T05:25:53.064Z,100861.41
2023-03-21T05:28:36.980Z,100857.75
2023-03-21T05:31:05.627Z,100861.50
2023-03-21T05:33:33.858Z,100854.28
2023-03-21T05:36:02.944Z,100864.06
2023-03-21T05:38:33.028Z,100865.03
2023-03-21T05:41:00.689Z,100860.56
2023-03-21T05:43:28.991Z,100865.03
2023-03-21T05:45:57.917Z,100866.72
2023-03-21T05:48:29.339Z,100865.59
2023-03-21T05:51:19.508Z,100863.91
2023-03-21T05:53:48.439Z,100871.03
2023-03-21T05:56:17.327Z,100872.72
2023-03-21T05:58:58.429Z,100870.91
2023-03-21T06:01:26.579Z,100871.78
2023-03-21T06:04:05.984Z,100880.19
2023-03-21T06:06:35.876Z,100864.38
2023-03-21T06:09:06.269Z,100871.38
2023-03-21T06:11:36.905Z,100879.25
2023-03-21T06:14:29.921Z,100878.28
2023-03-21T06:17:16.975Z,100884.16
2023-03-21T06:19:54.686Z,100879.81
2023-03-21T06:22:29.084Z,100875.34
2023-03-21T06:24:59.309Z,100881.50
2023-03-21T06:27:28.035Z,100884.16
2023-03-21T06:29:57.949Z,100874.97
2023-03-21T06:32:26.296Z,100879.91
2023-03-21T06:34:59.609Z,100887.38
2023-03-21T06:37:28.732Z,100879.91
2023-03-21T06:39:57.386Z,100882.44
2023-03-21T06:42:26.993Z,100881.31
2023-03-21T06:45:20.330Z,100878.59
2023-03-21T06:47:48.704Z,100876.78
2023-03-21T06:50:28.258Z,100877.13
2023-03-21T06:53:00.990Z,100879.91
2023-03-21T06:55:33.396Z,100874.00
2023-03-21T06:58:02.628Z,100881.00
2023-03-21T07:00:30.465Z,100874.72
2023-03-21T07:03:00.047Z,100876.50
2023-03-21T07:05:28.127Z,100872.78
2023-03-21T07:08:01.352Z,100879.78
2023-03-21T07:10:32.630Z,100871.28
2023-03-21T07:13:06.413Z,100875.41
2023-03-21T07:18:38.869Z,100872.97
2023-03-21T07:21:06.981Z,100882.06
2023-03-21T07:23:38.134Z,100889.19
2023-03-21T07:26:07.145Z,100880.94
2023-03-21T07:28:34.757Z,100880.84
2023-03-21T07:31:04.896Z,100891.47
2023-03-21T07:33:34.794Z,100875.41
2023-03-21T07:36:03.246Z,100880.56
2023-03-21T07:38:31.839Z,100880.44
2023-03-21T07:41:02.902Z,100890.09
2023-03-21T07:43:34.753Z,100882.00
2023-03-21T07:46:07.167Z,100880.53
2023-03-21T07:48:34.994Z,100883.69
2023-03-21T07:51:02.918Z,100884.66
2023-03-21T07:53:31.352Z,100877.53
2023-03-21T07:55:59.047Z,100877.53
2023-03-21T07:58:28.458Z,100879.09
2023-03-21T08:00:57.908Z,100884.84
2023-03-21T08:03:29.244Z,100885.97
2023-03-21T08:05:57.032Z,100884.84
2023-03-21T08:08:24.617Z,100885.00
2023-03-21T08:10:54.001Z,100879.53
2023-03-21T08:13:22.928Z,100874.09
2023-03-21T08:15:52.005Z,100881.81
2023-03-21T08:18:19.918Z,100877.03
2023-03-21T08:20:47.981Z,100878.72
2023-03-21T08:23:15.914Z,100876.19
2023-03-21T08:25:43.508Z,100885.69
2023-03-21T08:28:11.455Z,100881.22
2023-03-21T08:31:03.769Z,100879.63
2023-03-21T08:33:32.771Z,100881.13
2023-03-21T08:36:00.846Z,100883.50
2023-03-21T08:38:29.762Z,100876.13
2023-03-21T08:41:00.128Z,100874.63
2023-03-21T08:43:28.033Z,100873.84
2023-03-21T08:45:56.084Z,100869.19
2023-03-21T08:48:25.085Z,100872.16
2023-03-21T08:50:57.759Z,100876.00
2023-03-21T08:53:25.482Z,100879.31
2023-03-21T08:55:53.157Z,100879.31
2023-03-21T08:58:22.411Z,100874.88
2023-03-21T09:00:50.009Z,100872.34
2023-03-21T09:03:19.973Z,100874.66
2023-03-21T09:05:48.015Z,100875.00
2023-03-21T09:08:17.066Z,100875.66
2023-03-21T09:10:44.643Z,100864.97
2023-03-21T09:13:13.984Z,100856.53
2023-03-21T09:15:43.450Z,100867.09
2023-03-21T09:18:17.984Z,100869.50
2023-03-21T09:20:49.297Z,100869.03
2023-03-21T09:23:18.258Z,100861.78
2023-03-21T09:26:12.463Z,100861.28
2023-03-21T09:28:40.469Z,100858.13
2023-03-21T09:31:12.000Z,100850.59
2023-03-21T09:33:41.269Z,100856.63
2023-03-21T09:36:14.929Z,100851.59
2023-03-21T09:38:45.442Z,100852.19
2023-03-21T09:41:27.401Z,100856.97
2023-03-21T09:44:08.115Z,100856.31
2023-03-21T09:46:44.565Z,100853.69
2023-03-21T09:49:18.009Z,100851.34
2023-03-21T09:51:52.885Z,100852.13
2023-03-21T09:54:27.242Z,100850.00
2023-03-21T09:56:58.992Z,100848.94
2023-03-21T09:59:33.816Z,100854.41
2023-03-21T10:02:03.220Z,100855.22
2023-03-21T10:04:32.948Z,100847.00
2023-03-21T10:07:03.965Z,100848.69
2023-03-21T10:09:34.693Z,100847.09
2023-03-21T10:12:08.178Z,100849.22
2023-03-21T10:14:38.850Z,100850.06
2023-03-21T10:17:19.643Z,100841.25
2023-03-21T10:19:51.908Z,100843.38
2023-03-21T10:22:21.507Z,100837.66
2023-03-21T10:24:50.602Z,100841.53
2023-03-21T10:27:18.373Z,100843.81
2023-03-21T10:29:47.119Z,100843.16
2023-03-21T10:32:18.356Z,100841.19
2023-03-21T10:34:52.933Z,100837.28
2023-03-21T10:37:21.521Z,100841.63
2023-03-21T10:39:52.805Z,100834.91
2023-03-21T10:42:23.950Z,100835.34
2023-03-21T10:44:54.913Z,100832.78
2023-03-21T10:47:25.464Z,100827.63
2023-03-21T10:50:10.193Z,100823.84
2023-03-21T10:52:43.090Z,100827.75
2023-03-21T10:55:22.331Z,100827.75
2023-03-21T10:57:55.968Z,100820.22
2023-03-21T11:00:27.083Z,100814.03
2023-03-21T11:02:55.675Z,100811.38
2023-03-21T11:05:29.022Z,100808.28
2023-03-21T11:08:00.029Z,100810.97
2023-03-21T11:10:32.995Z,100808.00
2023-03-21T11:13:06.970Z,100804.78
2023-03-21T11:15:43.126Z,100796.50
2023-03-21T11:18:20.913Z,100799.19
2023-03-21T11:20:54.530Z,100801.69
2023-03-21T11:23:26.554Z,100796.78
2023-03-21T11:25:56.156Z,100796.38
2023-03-21T11:28:28.490Z,100791.63
2023-03-21T11:31:01.203Z,100788.41
2023-03-21T11:33:35.483Z,100781.50
2023-03-21T11:36:06.019Z,100783.75
2023-03-21T11:38:38.176Z,100774.25
2023-03-21T11:41:07.961Z,100780.41
2023-03-21T11:43:37.506Z,100768.78
2023-03-21T11:46:09.891Z,100771.00
2023-03-21T11:49:03.392Z,100767.94
2023-03-21T11:51:39.003Z,100764.13
2023-03-21T11:54:13.697Z,100761.19
2023-03-21T11:56:47.355Z,100766.66
2023-03-21T11:59:30.930Z,100759.50
2023-03-21T12:02:10.014Z,100751.25
2023-03-21T12:04:43.328Z,100750.25
2023-03-21T12:07:26.679Z,100741.56
2023-03-21T12:10:02.915Z,100742.69
2023-03-21T12:12:43.999Z,100741.16
2023-03-21T12:15:19.812Z,100736.78
2023-03-21T12:17:55.928Z,100733.53
2023-03-21T12:20:40.233Z,100733.00
2023-03-21T12:23:22.117Z,100712.22
2023-03-21T12:25:57.936Z,100711.84
2023-03-21T12:29:16.055Z,100709.31
2023-03-21T12:31:56.613Z,100707.75
2023-03-21T12:34:54.582Z,100702.31
2023-03-21T12:37:33.552Z,100701.31
2023-03-21T12:40:10.841Z,100701.47
2023-03-21T12:42:52.012Z,100695.25
2023-03-21T12:45:26.135Z,100695.41
2023-03-21T12:48:01.212Z,100694.56
2023-03-21T12:50:32.784Z,100695.81
2023-03-21T12:53:07.688Z,100697.06
2023-03-21T12:55:36.560Z,100687.22
2023-03-21T12:58:07.059Z,100698.47
2023-03-21T13:00:43.352Z,100690.59
2023-03-21T13:03:15.070Z,100684.72
2023-03-21T13:05:47.562Z,100684.53
2023-03-21T13:08:19.292Z,100686.94
2023-03-21T13:10:47.956Z,100681.59
2023-03-21T13:13:23.662Z,100682.72
2023-03-21T13:16:11.937Z,100674.63
2023-03-21T13:18:54.592Z,100670.97
2023-03-21T13:21:31.999Z,100665.78
2023-03-21T13:24:03.725Z,100662.47
2023-03-21T13:26:39.166Z,100662.88
2023-03-21T13:29:24.354Z,100651.75
2023-03-21T13:31:57.538Z,100646.88
2023-03-21T13:34:26.675Z,100643.78
2023-03-21T13:36:57.773Z,100644.25
2023-03-21T13:39:31.000Z,100632.34
2023-03-21T13:42:05.045Z,100629.09
2023-03-21T13:44:40.810Z,100627.41
2023-03-21T13:47:25.226Z,100619.19
2023-03-21T13:50:30.098Z,100609.97
2023-03-21T13:53:22.922Z,100607.81
2023-03-21T13:56:26.293Z,100611.31
2023-03-21T13:58:58.980Z,100614.66
2023-03-21T14:01:41.235Z,100605.63
2023-03-21T14:04:20.138Z,100605.41
2023-03-21T14:06:55.305Z,100596.25
2023-03-21T14:09:29.083Z,100589.78
2023-03-21T14:12:03.994Z,100584.56
2023-03-21T14:14:39.393Z,100579.34
2023-03-21T14:17:13.945Z,100582.63
2023-03-21T14:19:42.928Z,100581.63
2023-03-21T14:22:12.941Z,100576.13
2023-03-21T14:24:41.197Z,100574.31
2023-03-21T14:27:09.682Z,100571.41
2023-03-21T14:29:37.328Z,100567.53
2023-03-21T14:32:06.738Z,100570.19
2023-03-21T14:34:36.479Z,100566.91
2023-03-21T14:37:08.967Z,100548.41
2023-03-21T14:39:36.626Z,100557.06
2023-03-21T14:42:06.627Z,100559.91
2023-03-21T14:44:51.261Z,100556.25
2023-03-21T14:47:25.121Z,100558.06
2023-03-21T14:49:53.990Z,100549.94
2023-03-21T14:52:27.028Z,100555.41
2023-03-21T14:54:55.831Z,100553.28
2023-03-21T14:57:29.076Z,100554.19
2023-03-21T15:00:00.296Z,100555.03
2023-03-21T15:02:31.964Z,100557.00
2023-03-21T15:05:09.342Z,100566.28
2023-03-21T15:07:38.617Z,100562.13
2023-03-21T15:10:09.288Z,100561.91
2023-03-21T15:12:36.902Z,100560.13
2023-03-21T15:15:05.691Z,100562.41
2023-03-21T15:17:33.566Z,100560.00
2023-03-21T15:20:01.615Z,100559.13
2023-03-21T15:22:34.107Z,100551.53
2023-03-21T15:25:06.680Z,100549.56
2023-03-21T15:27:39.294Z,100551.22
2023-03-21T15:30:08.934Z,100551.75
2023-03-21T15:32:38.192Z,100554.56
2023-03-21T15:35:09.096Z,100550.91
2023-03-21T15:37:39.237Z,100547.13
2023-03-21T15:40:17.027Z,100544.28
2023-03-21T15:42:44.818Z,100538.41
2023-03-21T15:45:20.117Z,100531.41
2023-03-21T15:47:59.930Z,100537.56
2023-03-21T15:50:34.130Z,100525.84
2023-03-21T15:53:04.555Z,100525.31
2023-03-21T15:55:40.350Z,100523.94
2023-03-21T15:58:16.212Z,100518.22
2023-03-21T16:00:49.758Z,100521.72
2023-03-21T16:03:21.969Z,100529.88
2023-03-21T16:06:10.970Z,100526.06
2023-03-21T16:08:46.102Z,100529.44
2023-03-21T16:11:24.464Z,100529.13
2023-03-21T16:13:53.464Z,100511.66
2023-03-21T16:16:23.112Z,100513.72
2023-03-21T16:18:51.859Z,100525.44
2023-03-21T16:21:21.869Z,100511.22
2023-03-21T16:23:49.804Z,100513.72
2023-03-21T16:26:21.982Z,100508.38
2023-03-21T16:28:51.261Z,100510.38
2023-03-21T16:31:21.182Z,100504.50
2023-03-21T16:33:54.937Z,100498.38
2023-03-21T16:36:25.962Z,100505.88
2023-03-21T16:38:55.616Z,100506.72
2023-03-21T16:41:27.054Z,100509.66
2023-03-21T16:43:55.587Z,100517.53
2023-03-21T16:46:25.307Z,100529.19
2023-03-21T16:48:59.937Z,100530.72
2023-03-21T16:51:33.278Z,100516.31
2023-03-21T16:54:02.954Z,100507.50
2023-03-21T16:56:39.421Z,100501.44
2023-03-21T16:59:07.872Z,100503.00
2023-03-21T17:01:38.317Z,100513.72
2023-03-21T17:04:06.089Z,100511.22
2023-03-21T17:06:41.957Z,100513.66
2023-03-21T17:09:13.260Z,100511.03
2023-03-21T17:11:43.969Z,100521.72
2023-03-21T17:14:16.097Z,100523.16
2023-03-21T17:16:46.177Z,100531.16
2023-03-21T17:19:16.337Z,100533.28
2023-03-21T17:21:44.031Z,100536.94
2023-03-21T17:24:11.944Z,100535.56
2023-03-21T17:26:39.647Z,100536.53
2023-03-21T17:29:11.675Z,100540.19
2023-03-21T17:31:39.405Z,100542.84
2023-03-21T17:34:06.986Z,100534.84
2023-03-21T17:36:38.372Z,100537.84
2023-03-21T17:39:08.546Z,100543.56
2023-03-21T17:41:36.438Z,100548.50
2023-03-21T17:44:04.404Z,100544.25
2023-03-21T17:46:36.888Z,100549.91
2023-03-21T17:49:06.522Z,100542.59
2023-03-21T17:51:34.597Z,100539.25
2023-03-21T17:54:02.597Z,100537.84
2023-03-21T17:56:31.843Z,100543.03
2023-03-21T17:59:01.396Z,100549.34
2023-03-21T18:01:30.591Z,100547.50
2023-03-21T18:04:02.507Z,100539.28
2023-03-21T18:06:30.321Z,100549.09
2023-03-21T18:09:00.348Z,100551.63
2023-03-21T18:11:28.160Z,100554.28
2023-03-21T18:14:09.855Z,100547.28
2023-03-21T18:16:41.952Z,100554.75
2023-03-21T18:19:13.138Z,100552.44
2023-03-21T18:21:44.770Z,100548.25
2023-03-21T18:24:12.790Z,100547.72
2023-03-21T18:26:41.041Z,100545.19
2023-03-21T18:30:08.059Z,100541.69
2023-03-21T18:32:06.468Z,100549.41
2023-03-21T18:34:38.772Z,100544.53
2023-03-21T18:37:08.790Z,100547.34
2023-03-21T18:39:36.675Z,100551.81
2023-03-21T18:42:05.018Z,100549.44
2023-03-21T18:44:37.447Z,100552.78
2023-03-21T18:47:06.386Z,100558.13
2023-03-21T18:50:10.401Z,100554.09
2023-03-21T18:52:26.288Z,100554.38
2023-03-21T18:54:55.439Z,100563.19
2023-03-21T18:57:39.381Z,100561.84
2023-03-21T19:00:12.901Z,100553.13
2023-03-21T19:02:50.767Z,100539.38
2023-03-21T19:05:24.141Z,100536.03
2023-03-21T19:07:53.969Z,100542.47
2023-03-21T19:10:23.979Z,100535.06
2023-03-21T19:12:53.326Z,100543.50
2023-03-21T19:15:23.962Z,100541.13
2023-03-21T19:20:45.491Z,100545.22
2023-03-21T19:23:13.139Z,100546.47
2023-03-21T19:25:40.965Z,100547.47
2023-03-21T19:28:09.633Z,100538.81
2023-03-21T19:30:38.243Z,100533.59
2023-03-21T19:33:06.243Z,100530.94
2023-03-21T19:35:37.291Z,100540.75
2023-03-21T19:38:06.489Z,100533.22
2023-03-21T19:40:35.083Z,100531.81
2023-03-21T19:43:21.656Z,100533.91
2023-03-21T19:45:54.015Z,100534.06
2023-03-21T19:48:23.421Z,100532.25
2023-03-21T19:51:20.564Z,100523.41
2023-03-21T19:53:41.133Z,100527.91
2023-03-21T19:56:21.148Z,100531.56
2023-03-21T19:58:50.938Z,100528.19
2023-03-21T20:01:18.622Z,100537.16
2023-03-21T20:03:46.457Z,100535.63
2023-03-21T20:06:14.336Z,100543.72
2023-03-21T20:09:17.205Z,100535.06
2023-03-21T20:11:32.868Z,100532.97
2023-03-21T20:14:02.886Z,100524.31
2023-03-21T20:16:35.056Z,100526.13
2023-03-21T20:19:03.498Z,100535.94
2023-03-21T20:21:38.866Z,100526.13
2023-03-21T20:24:13.627Z,100521.81
2023-03-21T20:26:41.363Z,100522.34
2023-03-21T20:29:51.810Z,100524.84
2023-03-21T20:31:57.081Z,100513.66
2023-03-21T20:34:24.663Z,100509.88
2023-03-21T20:36:53.974Z,100501.03
2023-03-21T20:39:23.195Z,100506.78
2023-03-21T20:41:51.133Z,100512.25
2023-03-21T20:44:48.164Z,100501.63
2023-03-21T20:47:08.235Z,100510.84
2023-03-21T20:49:36.420Z,100507.94
2023-03-21T20:54:57.259Z,100496.72
2023-03-21T20:57:27.012Z,100498.44
2023-03-21T20:59:55.148Z,100500.53
2023-03-21T21:02:26.435Z,100500.81
2023-03-21T21:05:24.080Z,100500.41
2023-03-21T21:07:45.892Z,100499.00
2023-03-21T21:10:17.893Z,100495.81
2023-03-21T21:12:46.153Z,100495.94
2023-03-21T21:15:16.549Z,100498.59
2023-03-21T21:18:04.722Z,100493.72
2023-03-21T21:20:33.964Z,100494.97
2023-03-21T21:23:01.557Z,100494.38
2023-03-21T21:25:33.451Z,100498.03
2023-03-21T21:28:02.249Z,100499.16
2023-03-21T21:30:31.129Z,100500.53
2023-03-21T21:33:00.619Z,100500.41
2023-03-21T21:35:28.464Z,100489.34
2023-03-21T21:37:56.098Z,100486.81
2023-03-21T21:40:24.151Z,100482.63
2023-03-21T21:42:53.166Z,100483.03
2023-03-21T21:45:22.247Z,100482.63
2023-03-21T21:47:50.093Z,100479.13
2023-03-21T21:50:18.896Z,100479.38
2023-03-21T21:52:53.092Z,100472.69
2023-03-21T21:55:21.013Z,100473.78
2023-03-21T21:57:50.151Z,100474.91
2023-03-21T22:00:21.201Z,100472.53
2023-03-21T22:02:48.990Z,100475.34
2023-03-21T22:05:18.843Z,100485.38
2023-03-21T22:07:46.957Z,100479.38
2023-03-21T22:10:40.809Z,100473.50
2023-03-21T22:13:10.965Z,100478.09
2023-03-21T22:15:40.210Z,100472.22
2023-03-21T22:18:08.170Z,100474.19
2023-03-21T22:20:35.803Z,100473.50
2023-03-21T22:23:03.602Z,100472.06
2023-03-21T22:25:32.954Z,100472.22
2023-03-21T22:28:00.633Z,100468.44
2023-03-21T22:30:28.621Z,100466.03
2023-03-21T22:33:08.934Z,100468.97
2023-03-21T22:35:38.163Z,100463.94
2023-03-21T22:38:06.181Z,100470.38
2023-03-21T22:40:33.897Z,100468.41
2023-03-21T22:43:01.469Z,100470.47
2023-03-21T22:45:29.988Z,100462.25
2023-03-21T22:47:59.746Z,100468.41
2023-03-21T22:50:27.810Z,100464.06
2023-03-21T22:52:56.421Z,100462.25
2023-03-21T22:55:24.396Z,100460.19
2023-03-21T22:57:52.562Z,100456.66
2023-03-21T23:00:20.959Z,100449.56
2023-03-21T23:02:48.535Z,100456.97
2023-03-21T23:05:17.881Z,100453.34
2023-03-21T23:07:45.746Z,100455.16
2023-03-21T23:10:13.359Z,100450.53
2023-03-21T23:12:41.128Z,100445.91
2023-03-21T23:15:10.785Z,100443.69
2023-03-21T23:17:38.915Z,100439.78
2023-03-21T23:20:08.425Z,100437.97
2023-03-21T23:22:37.586Z,100442.16
2023-03-21T23:25:07.546Z,100436.44
2023-03-21T23:27:36.286Z,100440.78
2023-03-21T23:30:06.345Z,100437.00
2023-03-21T23:32:34.242Z,100437.00
2023-03-21T23:35:01.846Z,100435.63
2023-03-21T23:37:30.356Z,100434.09
2023-03-21T23:40:00.116Z,100429.75
2023-03-21T23:42:30.227Z,100431.56
2023-03-21T23:44:58.120Z,100430.44
2023-03-21T23:47:25.873Z,100429.19
2023-03-21T23:49:54.442Z,100423.72
2023-03-21T23:52:22.186Z,100430.03
2023-03-21T23:54:49.996Z,100422.47
2023-03-21T23:57:18.978Z,100422.47
2023-03-21T23:59:47.117Z,100423.00
